This is the latest recevied weather packets stored in our database for station/object OK1FET-16. If no packets are shown the sender has not sent any weather packets the latest 1 day(s).
| Time | Temp. | Humidity | Pressure | Rain* | Wind** | Luminosity | Snow |
|---|---|---|---|---|---|---|---|
| 1777970803 | 18.89° C | 56% | 1007.3 hPa | - | 0.89 m/s, 167° | - | - |
| 1777970802 | 18.89° C | 56% | 1007.3 hPa | - | 0.89 m/s, 167° | - | - |
| 1777970532 | 18.33° C | 53% | 1007.2 hPa | - | 0.89 m/s, 250° | - | - |
| 1777970532 | 18.33° C | 53% | 1007.2 hPa | - | 0.89 m/s, 250° | - | - |
| 1777970532 | 18.33° C | 53% | 1007.2 hPa | - | 0.89 m/s, 250° | - | - |
| 1777970262 | 18.33° C | 52% | 1007.2 hPa | - | 0.89 m/s, 286° | - | - |
| 1777970261 | 18.33° C | 52% | 1007.2 hPa | - | 0.89 m/s, 286° | - | - |
| 1777970261 | 18.33° C | 52% | 1007.2 hPa | - | 0.89 m/s, 286° | - | - |
| 1777969991 | 17.78° C | 53% | 1007.2 hPa | - | 1.34 m/s, 270° | - | - |
| 1777969991 | 17.78° C | 53% | 1007.2 hPa | - | 1.34 m/s, 270° | - | - |
| 1777969991 | 17.78° C | 53% | 1007.2 hPa | - | 1.34 m/s, 270° | - | - |
| 1777969720 | 17.78° C | 51% | 1007.1 hPa | - | 2.24 m/s, 251° | - | - |
| 1777969720 | 17.78° C | 51% | 1007.1 hPa | - | 2.24 m/s, 251° | - | - |
| 1777969720 | 17.78° C | 51% | 1007.1 hPa | - | 2.24 m/s, 251° | - | - |
| 1777969450 | 18.33° C | 51% | 1007.2 hPa | - | 0.89 m/s, 258° | - | - |
| 1777969450 | 18.33° C | 51% | 1007.2 hPa | - | 0.89 m/s, 258° | - | - |
| 1777969450 | 18.33° C | 51% | 1007.2 hPa | - | 0.89 m/s, 258° | - | - |
| 1777969179 | 18.89° C | 53% | 1007.3 hPa | - | 0.45 m/s, 258° | - | - |
| 1777969179 | 18.89° C | 53% | 1007.3 hPa | - | 0.45 m/s, 258° | - | - |
| 1777969179 | 18.89° C | 53% | 1007.3 hPa | - | 0.45 m/s, 258° | - | - |
| 1777968909 | 17.78° C | 59% | 1007.4 hPa | - | 0.45 m/s, 261° | - | - |
| 1777968909 | 17.78° C | 59% | 1007.4 hPa | - | 0.45 m/s, 261° | - | - |
| 1777968908 | 17.78° C | 59% | 1007.4 hPa | - | 0.45 m/s, 261° | - | - |
| 1777968638 | 17.22° C | 57% | 1007.3 hPa | - | 1.34 m/s, 221° | - | - |
| 1777968638 | 17.22° C | 57% | 1007.3 hPa | - | 1.34 m/s, 221° | - | - |
* Rain since midnight (hover to see other rain measurements)
** Current wind speed in m/s (hover to see current wind gust speed)